• Join FlightAware (Why Join?)
  • Login
  • US Flag 
12:53AM EDT


 

Airport Tracker/Info


-or-


 

Live Flight TrackerFlight Track Log ✈ UAL623 ✈ 13-May-2013 ✈ KORD - KLAX

Flight Track Log - Related Links

Times and Time Zones

All times are in EDT time to prevent confusion due to time zone crossing. See the UAL623 flight status page for this flight to view local times or setup timezone preferences in your user account.

Time Position Orientation Groundspeed Altitude Reporting Facility
EDT Latitude Longitude Course Direction KTS MPH feet Rate Location/Type
07:47PM 41.9333 -87.9167 253° West 171 197 2,600  Level Chicago TRACON
07:48PM 41.9000 -87.9667 228° Southwest 202 232 4,200 1,800 Climbing Chicago TRACON
07:49PM 41.8657 -88.3608 242° Southwest  Level FlightAware Approximate
07:49PM 41.8261 -88.0489 220° Southwest 243 280 7,300  Level Chicago Center
07:50PM 41.8266 -88.5138 254° West  Level FlightAware Approximate
07:50PM 41.8089 -88.1394 256° West 261 300 10,100  Level Chicago Center
07:51PM 41.7922 -88.6696 254° West  Level FlightAware Approximate
07:51PM 41.8025 -88.2375 265° West 266 306 12,500  Level Chicago Center
07:52PM 41.7576 -88.8252 253° West  Level FlightAware Approximate
07:52PM 41.7917 -88.3500 263° West 302 348 13,800  Level Chicago Center
07:53PM 41.7739 -88.4975 261° West 333 383 16,200 2,100 Climbing Chicago Center
07:54PM 41.7492 -88.6264 256° West 351 404 18,200 2,280 Climbing Chicago Center
07:55PM 41.7225 -88.7586 255° West 367 422 21,000 2,460 Climbing Chicago Center
07:56PM 41.6947 -88.8942 255° West 379 436 23,300 2,100 Climbing Chicago Center
07:58PM 41.6653 -89.0364 255° West 395 455 25,400 1,740 Climbing Chicago Center
07:59PM 41.6294 -89.2106 255° West 407 468 26,900 1,500 Climbing Chicago Center
08:00PM 41.5989 -89.3636 255° West 424 488 28,500 1,380 Climbing Chicago Center
08:01PM 41.5656 -89.5172 254° West 434 499 29,800 1,200 Climbing Chicago Center
08:02PM 41.5306 -89.6822 254° West 442 509 31,100 1,140 Climbing Chicago Center
08:03PM 41.4969 -89.8411 254° West 447 514 32,200 1,080 Climbing Chicago Center
08:04PM 41.4622 -90.0008 254° West 450 518 33,400 1,080 Climbing Chicago Center
08:05PM 41.4272 -90.1611 254° West 453 521 34,500 1,200 Climbing Chicago Center
08:06PM 41.3858 -90.3508 254° West 448 516 35,900 720 Climbing Chicago Center
08:07PM 41.3514 -90.5083 254° West 447 514 36,000  Climbing Chicago Center
08:08PM 41.3150 -90.6697 253° West 454 522 36,000  Level Chicago Center
08:09PM 41.2819 -90.8278 254° West 451 519 36,000  Level Chicago Center
08:10PM 41.2514 -90.9867 256° West 447 514 36,000  Level Chicago Center
08:11PM 41.2178 -91.1453 254° West 447 514 36,000  Level Chicago Center
08:12PM 41.1769 -91.3372 254° West 449 517 36,000  Level Chicago Center
08:13PM 41.1450 -91.4964 255° West 449 517 36,000  Level Chicago Center
08:14PM 41.1122 -91.6556 255° West 449 517 36,000  Level Chicago Center
08:15PM 41.0789 -91.8103 254° West 450 518 36,000  Level Chicago Center
08:16PM 41.0372 -92.0017 254° West 455 524 36,000  Level Chicago Center
08:17PM 41.0044 -92.1603 255° West 453 521 36,000  Level Chicago Center
08:18PM 40.9700 -92.3186 254° West 453 521 36,000  Level Chicago Center
08:19PM 40.9361 -92.4778 254° West 455 524 36,000  Level Chicago Center
08:20PM 40.9006 -92.6361 254° West 456 525 36,000  Level Chicago Center
08:21PM 40.8578 -92.8278 254° West 459 528 36,000  Level Chicago Center
08:22PM 40.8372 -92.9244 254° West 460 529 36,000  Level Minneapolis Center
08:23PM 40.8014 -93.0833 253° West 459 528 36,000  Level Minneapolis Center
08:24PM 40.7633 -93.2436 253° West 458 527 36,000  Level Minneapolis Center
08:25PM 40.7289 -93.3994 254° West 457 526 36,000  Level Minneapolis Center
08:26PM 40.6917 -93.5592 253° West 460 529 36,000  Level Minneapolis Center
08:27PM 40.6472 -93.7503 253° West 461 531 36,000  Level Minneapolis Center
08:28PM 40.6103 -93.9083 253° West 458 527 36,000  Level Minneapolis Center
08:29PM 40.5669 -94.0644 250° West 458 527 36,000  Level Minneapolis Center
08:30PM 40.5192 -94.2175 248° West 457 526 36,000  Level Minneapolis Center
08:31PM 40.4731 -94.3711 249° West 456 525 36,000  Level Minneapolis Center
08:32PM 40.4181 -94.5539 248° West 454 522 36,000  Level Minneapolis Center
08:33PM 40.3761 -94.6936 249° West 452 520 36,000  Level Minneapolis Center
08:34PM 40.3286 -94.8489 248° West 454 522 36,000  Level Minneapolis Center
08:35PM 40.2717 -95.0344 248° West 456 525 36,100  Climbing Minneapolis Center
08:36PM 40.2322 -95.1575 247° West 457 526 36,000 -60 Descending Minneapolis Center
08:37PM 40.1747 -95.3439 248° West 458 527 36,000  Level Minneapolis Center
08:38PM 40.1258 -95.4983 248° West 458 527 36,000  Level Minneapolis Center
08:39PM 40.0781 -95.6517 248° West 456 525 36,000  Level Minneapolis Center
08:40PM 40.0389 -95.7711 247° West 454 522 36,000  Level Minneapolis Center
08:41PM 39.9794 -95.9553 247° West 454 522 36,000  Level Minneapolis Center
08:42PM 39.9206 -96.1394 247° West 457 526 36,000  Level Minneapolis Center
08:44PM 39.8714 -96.2928 247° West 457 526 36,000  Level Minneapolis Center
08:45PM 39.8217 -96.4453 247° West 457 526 36,000  Level Minneapolis Center
08:46PM 39.7625 -96.6256 247° West 454 522 36,000  Level Minneapolis Center
08:47PM 39.7131 -96.7764 247° West 453 521 36,000  Level Kansas City Center
08:48PM 39.6597 -96.9325 246° West 457 526 36,000  Level Kansas City Center
08:49PM 39.6100 -97.0817 247° West 455 524 36,000  Level Kansas City Center
08:50PM 39.5614 -97.2286 247° West 455 524 36,000  Level Kansas City Center
08:51PM 39.5036 -97.4000 246° West 455 524 36,000  Level Kansas City Center
08:52PM 39.4500 -97.5594 247° West 455 524 36,000  Level Kansas City Center
08:53PM 39.3981 -97.7108 246° West 458 527 36,000  Level Kansas City Center
08:54PM 39.3461 -97.8625 246° West 461 531 36,000  Level Kansas City Center
08:55PM 39.2981 -98.0022 246° West 463 533 36,000  Level Kansas City Center
08:56PM 39.2392 -98.1708 246° West 462 532 36,000  Level Kansas City Center
08:57PM 39.1894 -98.3158 246° West 461 531 36,000  Level Kansas City Center
08:58PM 39.1353 -98.4681 245° Southwest 463 533 36,000  Level Denver Center
08:59PM 39.0819 -98.6192 246° West 463 533 36,000  Level Denver Center
09:00PM 39.0203 -98.7961 246° West 463 533 36,000  Level Kansas City Center
09:01PM 38.9744 -98.9211 245° Southwest 464 534 36,000  Level Denver Center
09:02PM 38.9203 -99.0744 246° West 462 532 36,000  Level Denver Center
09:03PM 38.8606 -99.2417 245° Southwest 463 533 36,000  Level Denver Center
09:04PM 38.8231 -99.4028 253° West 466 536 36,000  Level Kansas City Center
09:05PM 38.7883 -99.5697 255° West 464 534 36,000  Level Denver Center
09:06PM 38.7592 -99.7208 256° West 459 528 36,000  Level Denver Center
09:07PM 38.7283 -99.8733 256° West 462 532 36,000  Level Denver Center
09:08PM 38.6928 -100.0508 256° West 463 533 36,000  Level Denver Center
09:09PM 38.6611 -100.1986 255° West 457 526 36,000  Level Denver Center
09:10PM 38.6247 -100.3739 255° West 457 526 36,000  Level Denver Center
09:11PM 38.5933 -100.5239 255° West 458 527 36,000  Level Denver Center
09:13PM 38.5575 -100.7000 255° West 459 528 36,000  Level Denver Center
09:14PM 38.5197 -100.8750 255° West 461 531 36,000  Level Denver Center
09:15PM 38.4822 -101.0508 255° West 461 531 36,000  Level Denver Center
09:16PM 38.4500 -101.2025 255° West 462 532 36,000  Level Denver Center
09:17PM 38.4117 -101.3800 255° West 466 536 36,000  Level Denver Center
09:18PM 38.3786 -101.5311 254° West 465 535 36,000  Level Denver Center
09:19PM 38.3394 -101.7081 254° West 467 537 36,000  Level Denver Center
09:20PM 38.3058 -101.8611 254° West 469 540 36,000  Level Denver Center
09:21PM 38.2675 -102.0375 255° West 467 537 36,000  Level Denver Center
09:22PM 38.2325 -102.1900 254° West 470 541 36,000  Level Denver Center
09:23PM 38.1917 -102.3678 254° West 471 542 36,000  Level Denver Center
09:24PM 38.1558 -102.5197 253° West 471 542 36,000  Level Denver Center
09:25PM 38.1156 -102.6986 254° West 473 544 36,000  Level Denver Center
09:26PM 38.0794 -102.8517 253° West 473 544 36,000  Level Denver Center
09:27PM 38.0442 -103.0044 254° West 473 544 36,000  Level Denver Center
09:28PM 38.0033 -103.1794 254° West 476 548 36,000  Level Denver Center
09:29PM 37.9611 -103.3589 253° West 477 549 36,000  Level Denver Center
09:30PM 37.9247 -103.5128 253° West 477 549 36,000  Level Denver Center
09:31PM 37.8881 -103.6667 253° West 478 550 36,000  Level Denver Center
09:32PM 37.8456 -103.8456 253° West 479 551 36,000  Level Denver Center
09:33PM 37.8089 -103.9986 253° West 479 551 36,000  Level Denver Center
09:34PM 37.7661 -104.1756 253° West 479 551 36,000  Level Denver Center
09:35PM 37.7283 -104.3272 253° West 479 551 36,000  Level Denver Center
09:36PM 37.6836 -104.5044 252° West 478 550 36,000  Level Denver Center
09:37PM 37.6469 -104.6542 253° West 471 542 36,000  Level Denver Center
09:38PM 37.6031 -104.8278 252° West 466 536 36,000  Level Denver Center
09:39PM 37.5650 -104.9756 252° West 464 534 36,000  Level Denver Center
09:40PM 37.5217 -105.1475 252° West 463 533 36,000  Level Denver Center
09:41PM 37.4911 -105.2956 255° West 466 536 36,000  Level Denver Center
09:42PM 37.4581 -105.4739 257° West 469 540 36,000  Level Denver Center
09:43PM 37.4281 -105.6272 256° West 472 543 36,000  Level Denver Center
09:44PM 37.3911 -105.8081 256° West 477 549 36,000  Level Denver Center
09:46PM 37.3611 -105.9631 256° West 476 548 36,000  Level Denver Center
09:47PM 37.3269 -106.1392 256° West 466 536 36,000  Level Denver Center
09:48PM 37.2989 -106.2897 257° West 463 533 36,000  Level Denver Center
09:49PM 37.2647 -106.4711 257° West 479 551 36,000  Level Denver Center
09:50PM 37.2333 -106.6250 256° West 478 550 36,000  Level Denver Center
09:51PM 37.2019 -106.7778 256° West 474 545 36,000  Level Denver Center
09:52PM 37.1664 -106.9553 256° West 471 542 36,000  Level Denver Center
09:53PM 37.1361 -107.1081 256° West 472 543 36,000  Level Denver Center
09:54PM 37.0994 -107.2836 255° West 470 541 36,000  Level Denver Center
09:55PM 37.0683 -107.4372 256° West 475 547 36,000  Level Denver Center
09:56PM 37.0322 -107.6125 256° West 468 539 36,000  Level Denver Center
09:57PM 37.0000 -107.7642 255° West 472 543 36,000  Level Denver Center
09:58PM 36.9633 -107.9408 255° West 470 541 36,000  Level Denver Center
09:59PM 36.9317 -108.0919 255° West 470 541 36,000  Level Denver Center
10:00PM 36.8939 -108.2686 255° West 473 544 36,000  Level Denver Center
10:01PM 36.8622 -108.4183 255° West 470 541 36,000  Level Denver Center
10:02PM 36.8356 -108.5428 255° West 469 540 36,000  Level Denver Center
10:03PM 36.7911 -108.7389 254° West 464 534 36,000  Level Denver Center
10:04PM 36.7592 -108.8861 255° West 463 533 36,000  Level Denver Center
10:05PM 36.7217 -109.0581 255° West 462 532 36,000  Level Denver Center
10:06PM 36.6886 -109.2056 254° West 463 533 36,000  Level Denver Center
10:07PM 36.6489 -109.3775 254° West 465 535 36,000  Level Denver Center
10:08PM 36.6161 -109.5242 254° West 461 531 36,000  Level Denver Center
10:09PM 36.5772 -109.6944 254° West 461 531 36,000  Level Denver Center
10:10PM 36.5447 -109.8414 255° West 461 531 36,000  Level Denver Center
10:11PM 36.5047 -110.0131 254° West 463 533 36,000  Level Denver Center
10:13PM 36.4667 -110.1742 254° West 462 532 36,000  Level Denver Center
10:14PM 36.4253 -110.3575 254° West 460 529 36,000  Level Denver Center
10:15PM 36.3886 -110.5114 254° West 463 533 36,000  Level Denver Center
10:16PM 36.3506 -110.6656 253° West 465 535 36,000  Level Denver Center
10:17PM 36.3136 -110.8186 253° West 465 535 36,000  Level Denver Center
10:18PM 36.2769 -110.9714 253° West 464 534 36,000  Level Denver Center
10:19PM 36.2403 -111.1239 253° West 462 532 36,000  Level Denver Center
10:20PM 36.2028 -111.2761 253° West 463 533 36,000  Level Denver Center
10:21PM 36.1544 -111.4578 252° West 462 532 36,000  Level Denver Center
10:22PM 36.1056 -111.6061 248° West 465 535 36,000  Level Denver Center
10:23PM 36.0553 -111.7525 247° West 463 533 36,000  Level Denver Center
10:24PM 36.0067 -111.8992 248° West 463 533 36,000  Level Denver Center
10:24PM 35.9750 -111.9889 246° West 464 534 36,000  Level Los Angeles Center
10:25PM 35.9258 -112.1344 247° West 463 533 36,000  Level Los Angeles Center
10:27PM 35.8758 -112.2792 247° West 462 532 36,000  Level Los Angeles Center
10:28PM 35.8269 -112.4247 248° West 463 533 36,000  Level Los Angeles Center
10:29PM 35.7692 -112.6003 248° West 464 534 36,000  Level Los Angeles Center
10:30PM 35.7192 -112.7456 247° West 467 537 36,000  Level Los Angeles Center
10:31PM 35.6658 -112.8969 247° West 461 531 36,000  Level Los Angeles Center
10:32PM 35.6075 -113.0669 247° West 467 537 36,000  Level Los Angeles Center
10:33PM 35.5556 -113.2128 246° West 465 535 36,000  Level Los Angeles Center
10:34PM 35.4992 -113.3758 247° West 465 535 36,000  Level Los Angeles Center
10:35PM 35.4481 -113.5194 246° West 465 535 36,000  Level Los Angeles Center
10:36PM 35.3967 -113.6628 246° West 464 534 36,000  Level Los Angeles Center
10:37PM 35.3461 -113.8064 247° West 463 533 36,000  Level Los Angeles Center
10:38PM 35.2883 -113.9689 247° West 461 531 36,000  Level Los Angeles Center
10:39PM 35.2356 -114.1122 246° West 461 531 36,000  Level Los Angeles Center
10:40PM 35.1844 -114.2561 247° West 459 528 36,000  Level Los Angeles Center
10:41PM 35.1336 -114.3983 246° West 456 525 36,000  Level Los Angeles Center
10:42PM 35.0814 -114.5397 246° West 454 522 36,000  Level Los Angeles Center
10:43PM 35.0275 -114.6839 245° Southwest 466 536 36,000  Level Los Angeles Center
10:44PM 34.9658 -114.8525 246° West 456 525 36,000  Level Los Angeles Center
10:45PM 34.9150 -114.9933 246° West 454 522 36,000  Level Los Angeles Center
10:46PM 34.8628 -115.1347 246° West 455 524 36,000  Level Los Angeles Center
10:47PM 34.8114 -115.2742 246° West 452 520 36,000 -300 Level Los Angeles Center
10:48PM 34.7592 -115.4153 246° West 453 521 35,500 -900 Descending Los Angeles Center
10:49PM 34.7075 -115.5544 246° West 450 518 34,200 -1,260 Descending Los Angeles Center
10:50PM 34.6536 -115.6978 245° Southwest 459 528 32,900 -1,200 Descending Los Angeles Center
10:51PM 34.5992 -115.8394 245° Southwest 460 529 31,800 -960 Descending Los Angeles Center
10:52PM 34.5461 -115.9806 245° Southwest 461 531 31,000 -780 Descending Los Angeles Center
10:53PM 34.4933 -116.1192 245° Southwest 453 521 30,200 -840 Descending Los Angeles Center
10:54PM 34.4297 -116.2836 245° Southwest 449 517 29,300 -840 Descending Los Angeles Center
10:55PM 34.3772 -116.4197 245° Southwest 445 512 28,600 -660 Descending Los Angeles Center
10:56PM 34.3244 -116.5536 245° Southwest 442 509 28,000 -1,320 Descending Los Angeles Center
10:58PM 34.2728 -116.6856 245° Southwest 435 501 26,000 -2,040 Descending Los Angeles Center
10:59PM 34.2225 -116.8161 245° Southwest 430 495 23,900 -2,160 Descending Los Angeles Center
11:00PM 34.1733 -116.9417 245° Southwest 418 481 21,600 -2,220 Descending Los Angeles Center
11:00PM 34.1167 -117.0667 241° Southwest 391 450 19,700 -2,100 Descending Southern California TRACON
11:02PM 34.0833 -117.1833 251° West 379 436 17,600 -2,100 Descending Southern California TRACON
11:02PM 34.0500 -117.2833 248° West 378 435 15,700 -1,740 Descending Southern California TRACON
11:03PM 34.0333 -117.4000 260° West 349 402 14,400 -1,380 Descending Southern California TRACON
11:05PM 34.0167 -117.5333 261° West 320 368 12,900 -1,500 Descending Southern California TRACON
11:06PM 34.0167 -117.6333 270° West 381 438 11,300 -1,680 Descending Southern California TRACON
11:07PM 34.0000 -117.7333 259° West 284 327 9,600 -1,620 Descending Southern California TRACON
11:07PM 34.0000 -117.8167 270° West 276 318 8,300 -1,380 Descending Southern California TRACON
11:09PM 33.9833 -117.9167 259° West 267 307 6,900 -1,260 Descending Southern California TRACON
11:10PM 33.9667 -118.0000 256° West 239 275 5,700 -900 Descending Southern California TRACON
11:10PM 33.9667 -118.0667 270° West 201 231 5,200 -720 Descending Southern California TRACON
11:11PM 33.9667 -118.1167 270° West 186 214 4,400 -840 Descending Southern California TRACON
11:12PM 33.9614 -118.1525 260° West 192 221 4,000 -900 Descending Los Angeles Center